Time;durP1;ratioP1;P1;durP2;ratioP2;P2;SDS_P1;SDS_P2;PMS_P1;PMS_P2;Temp;Humidity;BMP_temperature;BMP_pressure;BME280_temperature;BME280_humidity;BME280_pressure;Samples;Min_cycle;Max_cycle;Signal;HPM_P1;HPM_P2
2024/01/10 00:02:05;;;;;;;0.70;0.70;;;-2.00;99.90;;;;;;5025456;28;20237;-86
2024/01/10 00:04:30;;;;;;;0.47;0.47;;;-2.00;99.90;;;;;;5039981;28;20597;-87
2024/01/10 00:06:56;;;;;;;0.43;0.43;;;-2.10;99.90;;;;;;5024455;28;20228;-87
2024/01/10 00:09:22;;;;;;;0.77;0.73;;;-2.10;99.90;;;;;;5015162;28;20187;-87
2024/01/10 00:11:48;;;;;;;2.17;2.07;;;-2.10;99.90;;;;;;5031312;28;20214;-87
2024/01/10 00:14:14;;;;;;;0.70;0.50;;;-2.10;99.90;;;;;;5040211;28;20628;-87
2024/01/10 00:16:40;;;;;;;1.20;1.20;;;-2.10;99.90;;;;;;5038735;28;20230;-85
2024/01/10 00:19:05;;;;;;;2.63;1.00;;;-2.20;99.90;;;;;;5023612;28;20206;-86
2024/01/10 00:21:31;;;;;;;1.30;1.20;;;-2.20;99.90;;;;;;5038273;28;20199;-87
2024/01/10 00:23:57;;;;;;;2.63;1.33;;;-2.30;99.90;;;;;;5033952;28;20195;-86
2024/01/10 00:26:23;;;;;;;0.77;0.77;;;-2.30;99.90;;;;;;5031444;28;20352;-87
2024/01/10 00:28:49;;;;;;;0.80;0.67;;;-2.20;99.90;;;;;;5029243;28;20226;-87
2024/01/10 00:31:14;;;;;;;1.40;1.03;;;-2.20;99.90;;;;;;5032370;28;20219;-87
2024/01/10 00:33:40;;;;;;;1.03;1.03;;;-2.40;99.90;;;;;;5022455;28;20234;-87
2024/01/10 00:36:06;;;;;;;0.47;0.47;;;-2.50;99.90;;;;;;5024808;28;20187;-86
2024/01/10 00:38:33;;;;;;;1.00;1.00;;;-2.60;99.90;;;;;;5030542;28;20222;-86
2024/01/10 00:40:58;;;;;;;1.33;1.33;;;-2.60;99.90;;;;;;5022892;28;20289;-87
2024/01/10 00:43:24;;;;;;;0.30;0.30;;;-2.50;99.90;;;;;;5023381;28;20223;-86
2024/01/10 00:45:50;;;;;;;0.43;0.43;;;-2.50;99.90;;;;;;5012113;28;20269;-87
2024/01/10 00:48:17;;;;;;;0.40;0.40;;;-2.40;99.90;;;;;;5039081;28;20208;-86
2024/01/10 00:50:44;;;;;;;1.07;1.03;;;-2.50;99.90;;;;;;5030023;28;20577;-87
2024/01/10 00:53:10;;;;;;;0.57;0.57;;;-2.50;99.90;;;;;;5022402;28;20218;-88
2024/01/10 00:55:36;;;;;;;1.00;1.00;;;-2.50;99.90;;;;;;5012962;28;20887;-89
2024/01/10 00:58:01;;;;;;;0.53;0.53;;;-2.50;99.90;;;;;;5039275;28;20712;-84
2024/01/10 01:00:27;;;;;;;1.10;1.10;;;-2.50;99.90;;;;;;5023747;28;20581;-87
2024/01/10 01:02:53;;;;;;;0.73;0.73;;;-2.50;99.90;;;;;;5031163;28;20651;-87
2024/01/10 01:05:19;;;;;;;0.73;0.73;;;-2.50;99.90;;;;;;5021735;28;20334;-87
2024/01/10 01:07:45;;;;;;;0.67;0.67;;;-2.50;99.90;;;;;;5023831;28;20222;-87
2024/01/10 01:10:10;;;;;;;1.10;1.03;;;-2.50;99.90;;;;;;5022622;28;20214;-86
2024/01/10 01:12:36;;;;;;;0.67;0.67;;;-2.40;99.90;;;;;;5024064;28;20670;-87
2024/01/10 01:15:02;;;;;;;1.50;1.50;;;-2.50;99.90;;;;;;5023633;28;20290;-86
2024/01/10 01:17:28;;;;;;;1.10;1.10;;;-2.40;99.90;;;;;;5023096;28;20570;-87
2024/01/10 01:19:54;;;;;;;0.30;0.30;;;-2.50;99.90;;;;;;5012745;28;20218;-87
2024/01/10 01:22:20;;;;;;;2.53;1.70;;;-2.40;99.90;;;;;;5015036;28;20246;-86
2024/01/10 01:24:46;;;;;;;1.20;1.20;;;-2.50;99.90;;;;;;5014824;28;20325;-87
2024/01/10 01:27:12;;;;;;;0.73;0.73;;;-2.50;99.90;;;;;;5027931;28;20589;-87
2024/01/10 01:29:38;;;;;;;1.03;1.03;;;-2.40;99.90;;;;;;5013722;28;20219;-87
2024/01/10 01:32:04;;;;;;;1.07;1.07;;;-2.40;99.90;;;;;;5014529;28;20249;-88
2024/01/10 01:34:30;;;;;;;1.00;0.97;;;-2.40;99.90;;;;;;5011190;28;20222;-87
2024/01/10 01:36:55;;;;;;;1.30;1.20;;;-2.40;99.90;;;;;;5038566;28;20647;-87
2024/01/10 01:39:21;;;;;;;0.60;0.60;;;-2.40;99.90;;;;;;5038569;28;20194;-86
2024/01/10 01:41:47;;;;;;;0.20;0.20;;;-2.30;99.90;;;;;;5012464;28;20959;-86
2024/01/10 01:44:13;;;;;;;0.37;0.37;;;-2.30;99.90;;;;;;5021834;28;20226;-87
2024/01/10 01:46:40;;;;;;;2.00;0.80;;;-2.40;99.90;;;;;;5022278;28;20603;-86
2024/01/10 01:49:07;;;;;;;1.50;1.40;;;-2.30;99.90;;;;;;5023666;28;20225;-86
2024/01/10 01:51:34;;;;;;;0.87;0.87;;;-2.30;99.90;;;;;;5038238;28;20288;-87
2024/01/10 01:54:00;;;;;;;0.70;0.70;;;-2.30;99.90;;;;;;5023417;28;20270;-88
2024/01/10 01:56:26;;;;;;;2.47;1.10;;;-2.20;99.90;;;;;;5020425;28;20246;-87
2024/01/10 01:58:54;;;;;;;0.63;0.63;;;-2.20;99.90;;;;;;5021732;28;20229;-87
2024/01/10 02:01:22;;;;;;;1.03;1.03;;;-2.20;99.90;;;;;;5011549;28;20233;-87
2024/01/10 02:03:48;;;;;;;1.30;1.30;;;-2.20;99.90;;;;;;5025340;28;20218;-87
2024/01/10 02:06:14;;;;;;;0.57;0.57;;;-2.20;99.90;;;;;;5025176;28;20729;-87
2024/01/10 02:08:40;;;;;;;1.93;1.83;;;-2.20;99.90;;;;;;5020621;28;20799;-86
2024/01/10 02:11:06;;;;;;;2.60;2.03;;;-2.20;99.90;;;;;;5008534;28;20252;-88
2024/01/10 02:13:32;;;;;;;0.50;0.50;;;-2.20;99.90;;;;;;5019209;28;20690;-87
2024/01/10 02:15:59;;;;;;;1.30;1.30;;;-2.20;99.90;;;;;;5020483;28;20241;-87
2024/01/10 02:18:24;;;;;;;1.07;1.07;;;-2.20;99.90;;;;;;5035507;28;20210;-87
2024/01/10 02:20:51;;;;;;;0.83;0.83;;;-2.10;99.90;;;;;;5021553;28;20194;-88
2024/01/10 02:23:18;;;;;;;0.60;0.60;;;-2.00;99.90;;;;;;5021383;28;20226;-87
2024/01/10 02:25:44;;;;;;;1.03;0.97;;;-2.00;99.90;;;;;;5022348;28;20218;-87
2024/01/10 02:28:10;;;;;;;1.43;1.43;;;-1.90;99.90;;;;;;5021966;28;20292;-88
2024/01/10 02:30:36;;;;;;;2.27;2.17;;;-1.90;99.90;;;;;;5029373;28;20638;-86
2024/01/10 02:33:02;;;;;;;0.97;0.97;;;-1.90;99.90;;;;;;5021966;28;20192;-86
2024/01/10 02:35:29;;;;;;;0.40;0.40;;;-1.90;99.90;;;;;;5037555;28;20222;-86
2024/01/10 02:37:55;;;;;;;1.13;1.10;;;-1.90;99.90;;;;;;5026420;28;20214;-87
2024/01/10 02:40:21;;;;;;;1.43;1.33;;;-1.90;99.90;;;;;;5021842;28;20697;-89
2024/01/10 02:42:47;;;;;;;0.77;0.77;;;-1.90;99.90;;;;;;5021997;28;20269;-86
2024/01/10 02:45:13;;;;;;;0.70;0.70;;;-1.90;99.90;;;;;;5021997;28;20194;-87
2024/01/10 02:47:39;;;;;;;0.87;0.87;;;-1.90;99.90;;;;;;5009792;28;20798;-87
2024/01/10 02:50:05;;;;;;;1.73;1.63;;;-1.90;99.90;;;;;;5019662;28;20682;-87
2024/01/10 02:52:31;;;;;;;0.30;0.30;;;-1.90;99.90;;;;;;5021434;28;20222;-87
2024/01/10 02:54:57;;;;;;;1.30;1.30;;;-1.90;99.90;;;;;;5025875;28;20801;-86
2024/01/10 02:57:23;;;;;;;5.10;2.50;;;-1.90;99.90;;;;;;5017468;28;20190;-88
2024/01/10 02:59:49;;;;;;;1.10;1.00;;;-1.90;99.90;;;;;;5026296;28;20190;-88
2024/01/10 03:02:14;;;;;;;1.03;1.03;;;-2.00;99.90;;;;;;5032050;28;20267;-86
2024/01/10 03:04:41;;;;;;;0.90;0.87;;;-2.00;99.90;;;;;;5026880;28;20642;-86
2024/01/10 03:07:07;;;;;;;1.03;1.03;;;-2.00;99.90;;;;;;5014133;28;20287;-87
2024/01/10 03:09:33;;;;;;;0.20;0.20;;;-2.00;99.90;;;;;;5027257;28;20630;-86
2024/01/10 03:11:58;;;;;;;1.43;1.33;;;-1.90;99.90;;;;;;5044010;28;20206;-88
2024/01/10 03:14:24;;;;;;;1.23;1.13;;;-1.90;99.90;;;;;;5019273;28;20314;-86
2024/01/10 03:16:50;;;;;;;2.63;2.43;;;-2.00;99.90;;;;;;5043776;28;20292;-81
2024/01/10 03:19:15;;;;;;;0.80;0.80;;;-2.00;99.90;;;;;;5038474;28;20666;-83
2024/01/10 03:21:41;;;;;;;1.73;1.63;;;-1.90;99.90;;;;;;5036741;28;20712;-83
2024/01/10 03:24:07;;;;;;;1.30;0.80;;;-1.90;99.90;;;;;;5038720;28;20190;-83
2024/01/10 03:26:34;;;;;;;0.97;0.97;;;-2.00;99.90;;;;;;5037772;28;20222;-82
2024/01/10 03:29:00;;;;;;;0.50;0.50;;;-2.00;99.90;;;;;;5036542;28;20582;-82
2024/01/10 03:31:28;;;;;;;0.27;0.27;;;-2.00;99.90;;;;;;5036712;28;20237;-82
2024/01/10 03:33:53;;;;;;;1.33;1.33;;;-2.10;99.90;;;;;;5052811;28;20214;-82
2024/01/10 03:36:19;;;;;;;1.03;1.03;;;-2.10;99.90;;;;;;5037117;28;20189;-82
2024/01/10 03:38:45;;;;;;;2.03;1.60;;;-2.10;99.90;;;;;;5053485;28;20229;-82
2024/01/10 03:41:15;;;;;;;0.40;0.40;;;-2.20;99.90;;;;;;5038113;28;20256;-83
2024/01/10 03:43:41;;;;;;;0.87;0.87;;;-2.10;99.90;;;;;;5036683;28;20709;-83
2024/01/10 03:46:07;;;;;;;0.63;0.63;;;-2.10;99.90;;;;;;5053146;28;20218;-83
2024/01/10 03:48:33;;;;;;;1.03;1.03;;;-2.10;99.90;;;;;;5052992;28;20267;-82
2024/01/10 03:50:59;;;;;;;1.03;1.00;;;-2.10;99.90;;;;;;5053702;28;20654;-82
2024/01/10 03:53:24;;;;;;;4.10;0.93;;;-2.10;99.90;;;;;;5053254;28;20214;-83
2024/01/10 03:55:50;;;;;;;0.80;0.80;;;-2.20;99.90;;;;;;5052593;28;20246;-82
2024/01/10 03:58:16;;;;;;;0.93;0.93;;;-2.20;99.90;;;;;;5052861;28;20221;-82
2024/01/10 04:00:41;;;;;;;0.60;0.60;;;-2.20;99.90;;;;;;5052771;28;20226;-82
2024/01/10 04:03:07;;;;;;;0.93;0.93;;;-2.20;99.90;;;;;;5053446;28;20650;-82
2024/01/10 04:05:33;;;;;;;1.07;1.07;;;-2.20;99.90;;;;;;5032769;28;20219;-82
2024/01/10 04:07:59;;;;;;;0.63;0.63;;;-2.20;99.90;;;;;;5032918;28;20222;-82
2024/01/10 04:10:25;;;;;;;1.10;1.10;;;-2.20;99.90;;;;;;5033048;28;20214;-82
2024/01/10 04:12:50;;;;;;;2.10;1.93;;;-2.20;99.90;;;;;;5034369;28;20546;-82
2024/01/10 04:15:18;;;;;;;1.10;1.10;;;-2.20;99.90;;;;;;5049908;28;20274;-82
2024/01/10 04:17:44;;;;;;;2.67;1.47;;;-2.20;99.90;;;;;;5033988;28;20272;-83
2024/01/10 04:20:10;;;;;;;1.10;1.10;;;-2.20;99.90;;;;;;5033367;28;20222;-82
2024/01/10 04:22:36;;;;;;;0.70;0.70;;;-2.10;99.90;;;;;;5034171;28;20226;-82
2024/01/10 04:25:04;;;;;;;1.67;1.67;;;-2.10;99.90;;;;;;5034163;28;20233;-83
2024/01/10 04:27:30;;;;;;;0.47;0.47;;;-2.10;99.90;;;;;;5033237;28;20529;-82
2024/01/10 04:29:56;;;;;;;2.00;1.90;;;-2.00;99.90;;;;;;5050118;28;20313;-83
2024/01/10 04:32:22;;;;;;;0.87;0.87;;;-2.10;99.90;;;;;;5032550;28;20672;-82
2024/01/10 04:34:47;;;;;;;0.40;0.40;;;-2.10;99.90;;;;;;5032752;28;20318;-82
2024/01/10 04:37:14;;;;;;;1.67;1.50;;;-2.10;99.90;;;;;;5032713;28;20680;-83
2024/01/10 04:39:40;;;;;;;2.50;2.40;;;-2.10;99.90;;;;;;5049602;28;20183;-83
2024/01/10 04:42:06;;;;;;;0.40;0.40;;;-2.10;99.90;;;;;;5049705;28;20646;-83
2024/01/10 04:44:32;;;;;;;0.50;0.50;;;-2.20;99.90;;;;;;5033022;28;20226;-82
2024/01/10 04:46:57;;;;;;;0.47;0.47;;;-2.20;99.90;;;;;;5033848;28;20714;-82
2024/01/10 04:49:23;;;;;;;0.50;0.50;;;-2.20;99.90;;;;;;5049066;28;20218;-83
2024/01/10 04:51:50;;;;;;;0.67;0.67;;;-2.30;99.90;;;;;;5048968;28;20230;-82
2024/01/10 04:54:16;;;;;;;0.80;0.80;;;-2.30;99.90;;;;;;5033905;28;20690;-82
2024/01/10 04:56:42;;;;;;;2.60;1.87;;;-2.30;99.90;;;;;;5032130;28;20318;-83
2024/01/10 04:59:08;;;;;;;3.13;2.93;;;-2.30;99.90;;;;;;5049053;28;20273;-82
2024/01/10 05:01:34;;;;;;;2.10;1.23;;;-2.30;99.90;;;;;;5048924;28;20225;-82
2024/01/10 05:04:00;;;;;;;1.50;1.50;;;-2.30;99.90;;;;;;5032506;28;20253;-82
2024/01/10 05:06:26;;;;;;;1.57;1.57;;;-2.50;99.90;;;;;;5048537;28;20534;-81
2024/01/10 05:08:51;;;;;;;2.20;1.57;;;-2.50;99.90;;;;;;5032354;28;20182;-83
2024/01/10 05:11:17;;;;;;;1.37;1.37;;;-2.40;99.90;;;;;;5033673;28;20250;-82
2024/01/10 05:13:43;;;;;;;0.60;0.60;;;-2.50;99.90;;;;;;5032075;28;20226;-83
2024/01/10 05:16:09;;;;;;;1.80;1.70;;;-2.50;99.90;;;;;;5047317;28;20227;-82
2024/01/10 05:18:35;;;;;;;1.30;1.23;;;-2.40;99.90;;;;;;5033118;28;20229;-82
2024/01/10 05:21:01;;;;;;;1.30;1.07;;;-2.50;99.90;;;;;;5048920;28;20248;-82
2024/01/10 05:23:27;;;;;;;3.13;1.20;;;-2.40;99.90;;;;;;5033262;28;20256;-82
2024/01/10 05:25:54;;;;;;;0.57;0.57;;;-2.40;99.90;;;;;;5031727;28;20674;-82
2024/01/10 05:28:19;;;;;;;1.07;0.97;;;-2.50;99.90;;;;;;5048321;28;20226;-82
2024/01/10 05:30:45;;;;;;;2.40;2.17;;;-2.40;99.90;;;;;;5032020;28;20219;-82
2024/01/10 05:33:11;;;;;;;0.60;0.60;;;-2.40;99.90;;;;;;5032382;28;20205;-82
2024/01/10 05:35:40;;;;;;;1.50;1.40;;;-2.40;99.90;;;;;;5031636;28;20248;-82
2024/01/10 05:38:05;;;;;;;0.40;0.40;;;-2.40;99.90;;;;;;5048537;28;20246;-82
2024/01/10 05:40:31;;;;;;;0.80;0.60;;;-2.40;99.90;;;;;;5031315;28;20222;-82
2024/01/10 05:43:01;;;;;;;1.53;0.97;;;-2.40;99.90;;;;;;5047890;28;20353;-82
2024/01/10 05:45:28;;;;;;;0.53;0.53;;;-2.50;99.90;;;;;;5031353;28;20175;-82
2024/01/10 05:47:54;;;;;;;0.73;0.73;;;-2.50;99.90;;;;;;5031876;28;20174;-82
2024/01/10 05:50:20;;;;;;;0.90;0.90;;;-2.60;99.90;;;;;;5031264;28;20207;-82
2024/01/10 05:52:47;;;;;;;1.30;1.30;;;-2.60;99.90;;;;;;5047756;28;20226;-82
2024/01/10 05:55:13;;;;;;;1.50;1.40;;;-2.60;99.90;;;;;;5032288;28;20280;-82
2024/01/10 05:57:39;;;;;;;2.07;1.97;;;-2.60;99.90;;;;;;5032358;28;20214;-82
2024/01/10 06:00:09;;;;;;;0.50;0.50;;;-2.60;99.90;;;;;;5048345;28;20171;-83
2024/01/10 06:02:38;;;;;;;0.43;0.43;;;-2.60;99.90;;;;;;5032256;28;20226;-82
2024/01/10 06:05:08;;;;;;;0.80;0.80;;;-2.60;99.90;;;;;;5031267;28;20664;-82
2024/01/10 06:07:35;;;;;;;1.27;1.27;;;-2.60;99.90;;;;;;5031165;28;20214;-82
2024/01/10 06:10:01;;;;;;;1.30;1.30;;;-2.50;99.90;;;;;;5030853;28;20248;-82
2024/01/10 06:12:28;;;;;;;1.03;1.03;;;-2.40;99.90;;;;;;5032325;28;20201;-81
2024/01/10 06:14:54;;;;;;;0.50;0.50;;;-2.40;99.90;;;;;;5031208;28;20663;-83
2024/01/10 06:17:19;;;;;;;0.83;0.83;;;-2.40;99.90;;;;;;5030588;28;20218;-82
2024/01/10 06:19:45;;;;;;;2.40;2.30;;;-2.40;99.90;;;;;;5030978;28;20227;-82
2024/01/10 06:22:11;;;;;;;0.50;0.50;;;-2.40;99.90;;;;;;5047160;28;20250;-82
2024/01/10 06:24:37;;;;;;;1.67;1.57;;;-2.40;99.90;;;;;;5047698;28;20187;-81
2024/01/10 06:27:05;;;;;;;2.40;1.93;;;-2.40;99.90;;;;;;5047580;28;20183;-80
2024/01/10 06:29:31;;;;;;;1.83;1.77;;;-2.40;99.90;;;;;;5047699;28;20244;-81
2024/01/10 06:31:57;;;;;;;0.73;0.70;;;-2.40;99.90;;;;;;5047053;28;20230;-80
2024/01/10 06:34:24;;;;;;;1.80;1.70;;;-2.40;99.90;;;;;;5030916;28;20585;-80
2024/01/10 06:36:50;;;;;;;1.73;1.70;;;-2.30;99.90;;;;;;5030245;28;20276;-80
2024/01/10 06:39:16;;;;;;;1.33;1.30;;;-2.30;99.90;;;;;;5030712;28;20266;-81
2024/01/10 06:41:43;;;;;;;1.40;1.40;;;-2.30;99.90;;;;;;5047113;28;20238;-79
2024/01/10 06:44:09;;;;;;;0.60;0.60;;;-2.30;99.90;;;;;;5031800;28;20309;-81
2024/01/10 06:46:35;;;;;;;0.60;0.60;;;-2.40;99.90;;;;;;5047209;28;20586;-80
2024/01/10 06:49:01;;;;;;;1.50;1.43;;;-2.40;99.90;;;;;;5030706;28;20325;-81
2024/01/10 06:51:27;;;;;;;0.40;0.40;;;-2.40;99.90;;;;;;5030281;28;20199;-80
2024/01/10 06:54:00;;;;;;;2.97;1.50;;;-2.40;99.90;;;;;;5047491;28;20179;-80
2024/01/10 06:56:26;;;;;;;2.10;2.00;;;-2.30;99.90;;;;;;5047064;28;20242;-80
2024/01/10 06:58:51;;;;;;;1.13;1.13;;;-2.30;99.90;;;;;;5030430;28;20353;-80
2024/01/10 07:01:17;;;;;;;0.80;0.80;;;-2.40;99.90;;;;;;5030266;28;20927;-79
2024/01/10 07:03:44;;;;;;;0.93;0.93;;;-2.40;99.90;;;;;;5030059;28;20218;-80
2024/01/10 07:06:14;;;;;;;2.83;1.60;;;-2.50;99.90;;;;;;5031156;28;20262;-80
2024/01/10 07:08:42;;;;;;;0.30;0.30;;;-2.50;99.90;;;;;;5046509;28;20210;-80
2024/01/10 07:11:08;;;;;;;0.87;0.87;;;-2.60;99.90;;;;;;5046702;28;20321;-81
2024/01/10 07:13:34;;;;;;;1.57;1.47;;;-2.60;99.90;;;;;;5030154;28;20630;-82
2024/01/10 07:16:01;;;;;;;0.83;0.83;;;-2.60;99.90;;;;;;5046629;28;20292;-80
2024/01/10 07:18:30;;;;;;;1.63;1.50;;;-2.60;99.90;;;;;;5030412;28;20179;-80
2024/01/10 07:20:56;;;;;;;0.50;0.50;;;-2.60;99.90;;;;;;5030653;28;20574;-80
2024/01/10 07:23:25;;;;;;;0.90;0.90;;;-2.60;99.90;;;;;;5030051;28;20218;-80
2024/01/10 07:25:51;;;;;;;1.27;1.13;;;-2.50;99.90;;;;;;5030272;28;20629;-79
2024/01/10 07:28:17;;;;;;;0.73;0.73;;;-2.50;99.90;;;;;;5046725;28;20293;-80
2024/01/10 07:30:44;;;;;;;0.43;0.43;;;-2.50;99.90;;;;;;5030201;28;20202;-83
2024/01/10 07:33:10;;;;;;;1.00;1.00;;;-2.50;99.90;;;;;;5030369;28;20179;-80
2024/01/10 07:35:37;;;;;;;4.23;2.07;;;-2.60;99.90;;;;;;5031564;28;20222;-81
2024/01/10 07:38:09;;;;;;;1.33;1.33;;;-2.60;99.90;;;;;;5031372;28;20548;-80
2024/01/10 07:40:36;;;;;;;1.53;1.53;;;-2.60;99.90;;;;;;5032081;28;20221;-80
2024/01/10 07:43:02;;;;;;;1.90;1.80;;;-2.60;99.90;;;;;;5033531;28;20214;-80
2024/01/10 07:45:28;;;;;;;1.27;1.20;;;-2.60;99.90;;;;;;5033585;28;20179;-81
2024/01/10 07:47:54;;;;;;;2.50;2.20;;;-2.60;99.90;;;;;;5033912;28;20596;-81
2024/01/10 07:50:20;;;;;;;1.07;1.07;;;-2.60;99.90;;;;;;5049730;28;20268;-80
2024/01/10 07:52:46;;;;;;;1.43;1.43;;;-2.60;99.90;;;;;;5034704;28;20222;-81
2024/01/10 07:55:12;;;;;;;1.77;1.70;;;-2.60;99.90;;;;;;5049954;28;20379;-80
2024/01/10 07:57:39;;;;;;;0.27;0.27;;;-2.50;99.90;;;;;;5034771;28;20201;-81
2024/01/10 08:00:08;;;;;;;0.20;0.20;;;-2.30;99.90;;;;;;5033661;28;20312;-80
2024/01/10 08:02:33;;;;;;;2.13;1.97;;;-2.20;99.90;;;;;;5034513;28;20222;-80
2024/01/10 08:05:08;;;;;;;1.07;1.07;;;-2.00;99.90;;;;;;5033554;28;20218;-80
2024/01/10 08:07:36;;;;;;;0.40;0.40;;;-1.80;99.90;;;;;;5050182;28;20217;-80
2024/01/10 08:10:05;;;;;;;1.33;1.33;;;-1.40;99.90;;;;;;5032986;28;20587;-81
2024/01/10 08:12:30;;;;;;;0.93;0.93;;;-1.20;99.90;;;;;;5032726;28;20671;-80
2024/01/10 08:14:56;;;;;;;1.30;1.30;;;-1.40;99.90;;;;;;5033402;28;20218;-81
2024/01/10 08:17:23;;;;;;;0.30;0.30;;;-1.70;99.90;;;;;;5033061;28;20210;-80
2024/01/10 08:19:49;;;;;;;1.40;1.20;;;-1.70;99.90;;;;;;5033069;28;20682;-80
2024/01/10 08:22:15;;;;;;;0.50;0.50;;;-1.80;99.90;;;;;;5049467;28;20219;-80
2024/01/10 08:24:41;;;;;;;1.53;0.93;;;-1.70;99.90;;;;;;5032665;28;20706;-79
2024/01/10 08:27:07;;;;;;;0.70;0.70;;;-1.70;99.90;;;;;;5050358;28;20270;-81
2024/01/10 08:29:33;;;;;;;1.97;1.87;;;-1.70;99.90;;;;;;5033087;28;20261;-80
2024/01/10 08:31:59;;;;;;;2.00;0.83;;;-1.70;99.90;;;;;;5032762;28;20210;-80
2024/01/10 08:34:25;;;;;;;2.37;1.60;;;-1.70;99.90;;;;;;5032523;28;20665;-81
2024/01/10 08:36:51;;;;;;;1.00;0.40;;;-1.70;99.90;;;;;;5033856;28;20237;-80
2024/01/10 08:39:17;;;;;;;0.47;0.47;;;-1.60;99.90;;;;;;5034806;28;20194;-80
2024/01/10 08:41:44;;;;;;;0.27;0.27;;;-1.60;99.90;;;;;;5049537;28;20240;-80
2024/01/10 08:44:13;;;;;;;2.57;2.47;;;-1.60;99.90;;;;;;5049014;28;20635;-80
2024/01/10 08:46:39;;;;;;;0.93;0.93;;;-1.50;99.90;;;;;;5049013;28;20232;-80
2024/01/10 08:49:04;;;;;;;1.33;1.10;;;-1.50;99.90;;;;;;5033863;28;20210;-82
2024/01/10 08:51:30;;;;;;;1.17;1.10;;;-1.50;99.90;;;;;;5049161;28;20193;-80
2024/01/10 08:54:00;;;;;;;1.63;1.50;;;-1.40;99.90;;;;;;5033848;28;20194;-80
2024/01/10 08:56:25;;;;;;;1.13;1.13;;;-1.30;99.90;;;;;;5048535;28;20767;-81
2024/01/10 08:58:52;;;;;;;1.23;1.23;;;-1.30;99.90;;;;;;5049048;28;20234;-80
2024/01/10 09:01:18;;;;;;;1.83;0.97;;;-1.30;99.90;;;;;;5031887;28;20227;-80
2024/01/10 09:03:44;;;;;;;2.80;1.73;;;-1.20;99.90;;;;;;5048669;28;20221;-81
2024/01/10 09:06:10;;;;;;;1.00;0.93;;;-1.10;99.90;;;;;;5032401;28;20179;-80
2024/01/10 09:08:36;;;;;;;1.07;0.97;;;-1.10;99.90;;;;;;5048964;28;20328;-80
2024/01/10 09:11:04;;;;;;;1.27;1.27;;;-1.00;99.90;;;;;;5048507;28;20229;-80
2024/01/10 09:13:30;;;;;;;0.40;0.40;;;-0.90;99.90;;;;;;5031506;28;20222;-80
2024/01/10 09:15:56;;;;;;;1.50;0.87;;;-0.90;99.90;;;;;;5031958;28;20214;-80
2024/01/10 09:18:22;;;;;;;1.67;1.67;;;-0.90;99.90;;;;;;5031714;28;20181;-79
2024/01/10 09:20:48;;;;;;;0.40;0.40;;;-0.90;99.90;;;;;;5048475;28;20194;-80
2024/01/10 09:23:14;;;;;;;1.07;1.07;;;-0.80;99.90;;;;;;5031745;28;20635;-80
2024/01/10 09:25:40;;;;;;;1.93;1.83;;;-0.80;99.90;;;;;;5031867;28;20289;-80
2024/01/10 09:28:06;;;;;;;0.40;0.40;;;-0.80;99.90;;;;;;5048148;28;20246;-81
2024/01/10 09:30:31;;;;;;;1.10;1.00;;;-0.80;99.90;;;;;;5032601;28;20600;-80
2024/01/10 09:32:58;;;;;;;1.87;1.40;;;-0.70;99.90;;;;;;5048471;28;20218;-81
2024/01/10 09:35:24;;;;;;;0.90;0.90;;;-0.70;99.90;;;;;;5031213;28;20690;-80
2024/01/10 09:37:50;;;;;;;1.80;1.60;;;-0.70;99.90;;;;;;5031747;28;20223;-79
2024/01/10 09:40:16;;;;;;;1.33;1.23;;;-0.70;99.90;;;;;;5031281;28;20306;-81
2024/01/10 09:42:46;;;;;;;0.30;0.30;;;-0.60;99.90;;;;;;5047911;28;20234;-81
2024/01/10 09:45:12;;;;;;;0.87;0.87;;;-0.60;99.90;;;;;;5032887;28;20183;-80
2024/01/10 09:47:42;;;;;;;0.30;0.30;;;-0.60;99.90;;;;;;5048014;28;20575;-81
2024/01/10 09:50:10;;;;;;;0.43;0.43;;;-0.60;99.90;;;;;;5032238;28;20264;-81
2024/01/10 09:53:04;;;;;;;0.40;0.40;;;-0.50;99.90;;;;;;5031284;28;20226;-80
2024/01/10 09:55:34;;;;;;;0.43;0.43;;;-0.50;99.90;;;;;;5032312;28;20320;-80
2024/01/10 09:58:05;;;;;;;0.40;0.40;;;-0.50;99.90;;;;;;5032303;28;20241;-80
2024/01/10 10:00:35;;;;;;;0.97;0.97;;;-0.50;99.90;;;;;;5047445;28;20179;-80
2024/01/10 10:03:04;;;;;;;0.53;0.53;;;-0.40;99.90;;;;;;5031870;28;20292;-79
2024/01/10 10:05:30;;;;;;;0.80;0.80;;;-0.40;99.90;;;;;;5031228;28;20226;-80
2024/01/10 10:07:57;;;;;;;1.10;1.10;;;-0.30;99.90;;;;;;5030886;28;20223;-80
2024/01/10 10:10:23;;;;;;;0.47;0.47;;;-0.30;99.90;;;;;;5031884;28;20220;-80
2024/01/10 10:12:53;;;;;;;1.33;0.93;;;-0.30;99.90;;;;;;5047478;28;20221;-79
2024/01/10 10:15:22;;;;;;;3.37;2.00;;;-0.30;99.90;;;;;;5031682;28;20182;-78
2024/01/10 10:17:49;;;;;;;1.07;0.70;;;-0.30;99.90;;;;;;5012534;28;20219;-78
2024/01/10 10:20:26;;;;;;;0.37;0.37;;;-0.30;99.90;;;;;;5026470;28;20217;-79
2024/01/10 10:22:58;;;;;;;0.40;0.40;;;-0.30;99.90;;;;;;5031354;28;20276;-80
2024/01/10 10:25:34;;;;;;;0.43;0.43;;;-0.20;99.90;;;;;;5032255;28;20260;-79
2024/01/10 10:28:02;;;;;;;0.67;0.67;;;-0.20;99.90;;;;;;5030663;28;20272;-79
2024/01/10 10:30:30;;;;;;;0.67;0.67;;;-0.20;99.90;;;;;;5030775;28;20175;-80
2024/01/10 10:32:56;;;;;;;2.20;2.10;;;-0.20;99.90;;;;;;5047310;28;20673;-79
2024/01/10 10:35:22;;;;;;;0.50;0.50;;;-0.10;99.90;;;;;;5046849;28;20230;-82
2024/01/10 10:37:50;;;;;;;0.30;0.30;;;-0.10;99.90;;;;;;5031609;28;20221;-80
2024/01/10 10:40:16;;;;;;;0.97;0.97;;;-0.10;99.90;;;;;;5047000;28;20273;-80
2024/01/10 10:42:54;;;;;;;0.77;0.77;;;0.00;99.90;;;;;;5030175;28;20218;-80
2024/01/10 10:45:26;;;;;;;0.30;0.30;;;0.00;99.90;;;;;;5030472;28;20163;-79
2024/01/10 10:48:01;;;;;;;0.30;0.30;;;-0.10;99.90;;;;;;5048151;28;20181;-80
2024/01/10 10:50:34;;;;;;;1.33;1.23;;;-0.10;1.00;;;;;;5030825;28;20221;-81
2024/01/10 10:53:03;;;;;;;0.50;0.50;;;-0.10;1.00;;;;;;5046620;28;20686;-81
2024/01/10 10:55:29;;;;;;;0.40;0.40;;;0.00;1.00;;;;;;5031443;28;20555;-80
2024/01/10 10:57:56;;;;;;;3.40;1.57;;;0.00;99.90;;;;;;5031396;28;20218;-82
2024/01/10 11:00:26;;;;;;;0.53;0.53;;;0.00;99.90;;;;;;5046463;28;20193;-80
2024/01/10 11:02:54;;;;;;;0.37;0.37;;;0.10;99.90;;;;;;5030487;28;20194;-82
2024/01/10 11:05:21;;;;;;;0.80;0.80;;;0.20;1.00;;;;;;5031759;28;20223;-82
2024/01/10 11:07:47;;;;;;;0.87;0.87;;;0.20;1.00;;;;;;5030291;28;20664;-81
2024/01/10 11:10:19;;;;;;;0.30;0.30;;;0.10;99.90;;;;;;5029892;28;20513;-81
2024/01/10 11:13:17;;;;;;;1.40;1.40;;;0.20;99.90;;;;;;5030375;28;20560;-82
2024/01/10 11:16:02;;;;;;;0.30;0.30;;;0.30;99.90;;;;;;5033742;28;20324;-81
2024/01/10 11:18:40;;;;;;;0.60;0.60;;;0.40;99.90;;;;;;5035966;28;20194;-82
2024/01/10 11:21:14;;;;;;;1.47;1.43;;;0.40;13.80;;;;;;5036314;28;20665;-81
2024/01/10 11:23:46;;;;;;;2.70;2.50;;;0.40;1.00;;;;;;5035822;28;20669;-80
2024/01/10 11:26:14;;;;;;;1.37;1.37;;;0.50;1.00;;;;;;5033852;28;20215;-80
2024/01/10 11:28:40;;;;;;;1.20;1.13;;;0.50;99.90;;;;;;5034291;28;20266;-80
2024/01/10 11:31:08;;;;;;;1.23;0.60;;;0.50;99.90;;;;;;5050542;28;20225;-81
2024/01/10 11:33:43;;;;;;;1.37;1.27;;;0.50;99.90;;;;;;5033915;28;20270;-80
2024/01/10 11:36:13;;;;;;;1.67;1.57;;;0.60;2.80;;;;;;5049917;28;20182;-82
2024/01/10 11:38:59;;;;;;;1.37;1.37;;;0.60;1.00;;;;;;5034970;28;20225;-82
2024/01/10 11:41:29;;;;;;;1.10;0.77;;;0.60;1.00;;;;;;5050131;28;20234;-81
2024/01/10 11:44:13;;;;;;;0.40;0.40;;;0.60;1.00;;;;;;5034672;28;20671;-81
2024/01/10 11:46:40;;;;;;;0.50;0.50;;;0.70;99.90;;;;;;5050337;28;20226;-82
2024/01/10 11:49:09;;;;;;;0.97;0.97;;;0.80;99.90;;;;;;5050534;28;20723;-81
2024/01/10 11:51:36;;;;;;;1.23;1.23;;;0.90;99.90;;;;;;5034439;28;20186;-80
2024/01/10 11:54:02;;;;;;;0.47;0.47;;;0.90;99.70;;;;;;5033680;28;20178;-81
2024/01/10 11:56:39;;;;;;;0.80;0.80;;;0.80;1.00;;;;;;5049489;28;20258;-81
2024/01/10 11:59:12;;;;;;;1.03;1.03;;;0.90;1.00;;;;;;5033359;28;20237;-81
2024/01/10 12:01:40;;;;;;;0.43;0.43;;;1.00;1.00;;;;;;5033318;28;20235;-81
2024/01/10 12:04:06;;;;;;;0.70;0.70;;;0.90;1.00;;;;;;5034436;28;20293;-81
2024/01/10 12:06:36;;;;;;;0.60;0.60;;;1.00;99.90;;;;;;5033548;28;20174;-81
2024/01/10 12:09:08;;;;;;;0.50;0.50;;;1.00;99.90;;;;;;5050131;28;20187;-80
2024/01/10 12:11:35;;;;;;;0.47;0.47;;;1.00;99.90;;;;;;5034555;28;20228;-82
2024/01/10 12:14:03;;;;;;;1.67;1.60;;;1.10;75.20;;;;;;5032895;28;20229;-80
2024/01/10 12:16:29;;;;;;;0.40;0.40;;;1.10;1.00;;;;;;5034221;28;20242;-81
2024/01/10 12:18:58;;;;;;;0.63;0.63;;;1.10;1.00;;;;;;5032839;28;20226;-81
2024/01/10 12:21:24;;;;;;;0.30;0.30;;;1.20;1.00;;;;;;5049338;28;20237;-81
2024/01/10 12:23:51;;;;;;;0.30;0.30;;;1.10;1.00;;;;;;5050421;28;20183;-82
2024/01/10 12:26:17;;;;;;;0.43;0.43;;;1.20;1.00;;;;;;5033613;28;20219;-81
2024/01/10 12:28:57;;;;;;;2.23;1.00;;;1.40;1.00;;;;;;5034414;28;20230;-81
2024/01/10 12:31:26;;;;;;;0.77;0.77;;;1.40;99.90;;;;;;5032669;28;20217;-82
2024/01/10 12:33:54;;;;;;;0.97;0.97;;;1.30;99.90;;;;;;5032482;28;20215;-82
2024/01/10 12:36:23;;;;;;;0.40;0.40;;;1.20;99.90;;;;;;5032913;28;20167;-82
2024/01/10 12:38:50;;;;;;;0.53;0.53;;;1.20;4.90;;;;;;5049488;28;20718;-80
2024/01/10 12:41:17;;;;;;;0.37;0.37;;;1.20;1.00;;;;;;5032726;28;20230;-81
2024/01/10 12:43:48;;;;;;;0.27;0.27;;;1.30;1.00;;;;;;5033740;28;20222;-81
2024/01/10 12:46:14;;;;;;;2.97;2.87;;;1.30;1.00;;;;;;5034008;28;20218;-81
2024/01/10 12:48:41;;;;;;;0.50;0.50;;;1.30;1.00;;;;;;5032460;28;20217;-82
2024/01/10 12:51:11;;;;;;;1.30;1.30;;;1.20;1.00;;;;;;5032628;28;20270;-81